createdAt,value
2019-04-30T00:03:37.652Z,81.66
2019-04-30T00:08:39.220Z,80.30
2019-04-30T00:13:40.243Z,81.49
2019-04-30T00:18:55.428Z,81.14
2019-04-30T00:23:45.800Z,81.18
2019-04-30T00:28:47.836Z,81.22
2019-04-30T00:33:52.738Z,80.73
2019-04-30T00:38:51.752Z,80.59
2019-04-30T00:43:52.607Z,79.72
2019-04-30T00:48:55.544Z,79.98
2019-04-30T00:53:56.477Z,80.41
2019-04-30T00:58:57.972Z,81.13
2019-04-30T01:04:05.033Z,80.99
2019-04-30T01:09:08.707Z,80.86
2019-04-30T01:14:09.880Z,81.90
2019-04-30T01:19:26.597Z,80.52
2019-04-30T01:24:13.886Z,81.20
2019-04-30T01:29:15.265Z,81.35
2019-04-30T01:34:16.436Z,81.64
2019-04-30T01:39:19.401Z,81.32
2019-04-30T01:44:20.077Z,81.50
2019-04-30T01:49:25.706Z,81.88
2019-04-30T01:54:24.411Z,81.14
2019-04-30T01:59:29.099Z,81.84
2019-04-30T02:04:31.466Z,82.18
2019-04-30T02:09:32.574Z,82.38
2019-04-30T02:14:33.563Z,81.98
2019-04-30T02:19:34.459Z,82.63
2019-04-30T02:24:35.333Z,82.21
2019-04-30T02:29:36.219Z,82.18
2019-04-30T02:34:44.827Z,81.20
2019-04-30T02:39:46.184Z,82.33
2019-04-30T02:44:50.196Z,81.42
2019-04-30T02:49:53.355Z,81.87
2019-04-30T02:54:55.227Z,83.00
2019-04-30T03:00:16.104Z,83.09
2019-04-30T03:05:19.551Z,83.42
2019-04-30T03:10:20.113Z,82.14
2019-04-30T03:15:22.885Z,82.91
2019-04-30T03:20:36.414Z,83.62
2019-04-30T03:25:40.349Z,82.57
2019-04-30T03:30:42.058Z,82.26
2019-04-30T03:35:47.865Z,83.77
2019-04-30T03:40:46.097Z,83.74
2019-04-30T03:45:49.733Z,83.54
2019-04-30T03:50:56.288Z,82.78
2019-04-30T03:55:52.616Z,82.46
2019-04-30T04:01:00.346Z,82.03
2019-04-30T04:06:21.428Z,82.32
2019-04-30T04:11:24.111Z,83.20
2019-04-30T04:16:24.994Z,82.76
2019-04-30T04:21:25.954Z,82.24
2019-04-30T04:26:26.835Z,83.45
2019-04-30T04:31:29.825Z,84.14
2019-04-30T04:36:30.573Z,83.23
2019-04-30T04:41:31.593Z,84.44
2019-04-30T04:46:32.489Z,82.58
2019-04-30T04:51:38.501Z,83.50
2019-04-30T04:56:36.138Z,82.67
2019-04-30T05:01:38.790Z,83.67
2019-04-30T05:06:39.885Z,84.98
2019-04-30T05:11:40.761Z,85.17
2019-04-30T05:16:41.645Z,85.01
2019-04-30T05:21:44.745Z,84.29
2019-04-30T05:26:45.304Z,84.89
2019-04-30T05:31:46.181Z,83.54
2019-04-30T05:36:48.847Z,84.03
2019-04-30T05:41:49.847Z,83.93
2019-04-30T05:46:50.725Z,83.09
2019-04-30T05:51:55.540Z,83.21
2019-04-30T05:56:54.616Z,83.89
2019-04-30T06:01:55.496Z,83.54
2019-04-30T06:06:56.396Z,84.72
2019-04-30T06:11:59.303Z,84.44
2019-04-30T06:17:09.744Z,83.87
2019-04-30T06:22:11.204Z,85.13
2019-04-30T06:27:12.372Z,85.13
2019-04-30T06:32:13.415Z,85.64
2019-04-30T06:37:14.373Z,85.39
2019-04-30T06:42:15.283Z,84.81
2019-04-30T06:47:16.548Z,85.74
2019-04-30T06:52:21.358Z,84.90
2019-04-30T06:57:20.195Z,85.22
2019-04-30T07:02:21.184Z,85.04
2019-04-30T07:07:30.767Z,84.79
2019-04-30T07:12:30.544Z,84.88
2019-04-30T07:17:31.537Z,85.76
2019-04-30T07:22:40.178Z,85.95
2019-04-30T07:27:35.294Z,85.75
2019-04-30T07:32:36.160Z,84.62
2019-04-30T07:37:38.966Z,85.41
2019-04-30T07:42:44.602Z,84.51
2019-04-30T07:47:42.613Z,85.14
2019-04-30T07:52:58.895Z,86.31
2019-04-30T07:57:46.248Z,86.27
2019-04-30T08:02:51.815Z,85.99
2019-04-30T08:07:52.697Z,85.35
2019-04-30T08:12:54.093Z,84.92
2019-04-30T08:18:03.565Z,85.92
2019-04-30T08:23:03.094Z,85.48
2019-04-30T08:28:00.933Z,86.34
2019-04-30T08:33:01.996Z,85.71
2019-04-30T08:38:03.073Z,83.69
2019-04-30T08:43:04.059Z,85.82
2019-04-30T08:48:05.215Z,86.50
2019-04-30T08:53:06.163Z,86.91
2019-04-30T08:58:11.973Z,85.82
2019-04-30T09:03:09.925Z,86.24
2019-04-30T09:08:12.613Z,86.00
2019-04-30T09:13:13.480Z,84.24
2019-04-30T09:18:14.353Z,84.67
2019-04-30T09:23:15.235Z,84.57
2019-04-30T09:28:16.221Z,84.66
2019-04-30T09:33:17.072Z,85.28
2019-04-30T09:38:19.544Z,83.44
2019-04-30T09:43:20.922Z,84.95
2019-04-30T09:48:22.838Z,85.29
2019-04-30T09:53:24.729Z,85.14
2019-04-30T09:58:25.804Z,85.43
2019-04-30T10:03:27.269Z,85.48
2019-04-30T10:08:30.656Z,84.29
2019-04-30T10:13:32.388Z,85.98
2019-04-30T10:18:33.745Z,86.15
2019-04-30T10:23:34.623Z,87.58
2019-04-30T10:28:37.808Z,84.87
2019-04-30T10:33:38.720Z,85.51
2019-04-30T10:38:39.552Z,86.22
2019-04-30T10:43:40.650Z,86.20
2019-04-30T10:48:43.489Z,86.20
2019-04-30T10:53:44.375Z,85.67
2019-04-30T10:58:45.444Z,85.59
2019-04-30T11:03:46.423Z,86.64
2019-04-30T11:08:47.299Z,86.66
2019-04-30T11:13:48.183Z,86.33
2019-04-30T11:18:49.235Z,86.64
2019-04-30T11:23:50.883Z,86.59
2019-04-30T11:28:52.515Z,86.02
2019-04-30T11:33:55.623Z,86.33
2019-04-30T11:38:58.255Z,85.67
2019-04-30T11:43:59.572Z,86.51
2019-04-30T11:49:00.671Z,86.02
2019-04-30T11:54:01.547Z,86.05
2019-04-30T11:59:02.715Z,86.23
2019-04-30T12:04:03.888Z,86.08
2019-04-30T12:09:15.334Z,85.27
2019-04-30T12:14:16.316Z,84.74
2019-04-30T12:19:18.916Z,85.51
2019-04-30T12:24:20.112Z,85.29
2019-04-30T12:29:21.073Z,86.10
2019-04-30T12:34:24.707Z,85.43
2019-04-30T12:39:25.658Z,85.04
2019-04-30T12:44:26.631Z,85.32
2019-04-30T12:49:29.639Z,85.35
2019-04-30T12:54:41.760Z,85.54
2019-04-30T12:59:42.643Z,85.19
2019-04-30T13:04:43.503Z,85.97
2019-04-30T13:09:44.974Z,84.49
2019-04-30T13:14:52.497Z,84.93
2019-04-30T13:19:48.981Z,85.88
2019-04-30T13:24:49.990Z,84.63
2019-04-30T13:29:52.751Z,84.31
2019-04-30T13:35:00.680Z,84.80
2019-04-30T13:40:09.215Z,84.31
2019-04-30T13:45:10.540Z,84.51
2019-04-30T13:50:12.463Z,84.73
2019-04-30T13:55:13.423Z,84.69
2019-04-30T14:00:18.590Z,83.77
2019-04-30T14:05:19.976Z,83.63
2019-04-30T14:10:21.317Z,83.35
2019-04-30T14:15:22.309Z,81.08
2019-04-30T14:20:23.830Z,81.08
2019-04-30T14:25:24.701Z,81.54
2019-04-30T14:30:25.676Z,81.22
2019-04-30T14:35:28.681Z,82.04
2019-04-30T14:40:33.156Z,81.27
2019-04-30T14:45:40.698Z,80.83
2019-04-30T14:50:42.479Z,79.32
2019-04-30T14:55:54.270Z,79.73
2019-04-30T15:01:09.395Z,79.73
2019-04-30T15:06:10.681Z,79.02
2019-04-30T15:11:12.048Z,79.02
2019-04-30T15:16:13.077Z,77.95
2019-04-30T15:21:14.097Z,77.22
2019-04-30T15:26:22.083Z,77.63
2019-04-30T15:31:18.543Z,74.92
2019-04-30T15:36:19.755Z,74.18
2019-04-30T15:41:21.039Z,73.21
2019-04-30T15:46:22.720Z,74.94
2019-04-30T15:51:23.791Z,76.55
2019-04-30T15:56:34.405Z,77.36
2019-04-30T16:01:29.085Z,79.39
2019-04-30T16:06:30.292Z,79.86
2019-04-30T16:11:33.114Z,79.84
2019-04-30T16:16:36.494Z,80.78
2019-04-30T16:21:37.363Z,80.00
2019-04-30T16:26:49.038Z,80.06
2019-04-30T16:31:41.191Z,80.52
2019-04-30T16:36:42.081Z,81.10
2019-04-30T16:41:43.044Z,81.55
2019-04-30T16:46:43.928Z,81.40
2019-04-30T16:51:44.973Z,80.60
2019-04-30T16:56:46.138Z,79.93
2019-04-30T17:01:57.455Z,80.07
2019-04-30T17:07:12.109Z,80.17
2019-04-30T17:12:23.870Z,80.96
2019-04-30T17:17:24.875Z,81.65
2019-04-30T17:22:25.754Z,80.72
2019-04-30T17:27:26.629Z,80.24
2019-04-30T17:32:28.598Z,82.35
2019-04-30T17:37:31.484Z,81.69
2019-04-30T17:42:32.375Z,82.52
2019-04-30T17:47:33.256Z,82.54
2019-04-30T17:52:34.212Z,82.92
2019-04-30T17:57:35.191Z,82.49
2019-04-30T18:02:36.172Z,82.71
2019-04-30T18:07:37.150Z,82.94
2019-04-30T18:12:39.133Z,82.73
2019-04-30T18:17:41.415Z,82.05
2019-04-30T18:23:01.142Z,82.97
2019-04-30T18:28:04.372Z,82.44
2019-04-30T18:33:06.172Z,82.36
2019-04-30T18:38:07.152Z,83.21
2019-04-30T18:43:08.228Z,82.63
2019-04-30T18:48:09.698Z,83.67
2019-04-30T18:53:13.239Z,84.20
2019-04-30T18:58:14.106Z,83.00
2019-04-30T19:03:15.182Z,82.39
2019-04-30T19:08:19.486Z,82.56
2019-04-30T19:13:22.406Z,82.56
2019-04-30T19:18:25.193Z,82.88
2019-04-30T19:23:26.159Z,81.97
2019-04-30T19:28:28.692Z,80.90
2019-04-30T19:33:31.218Z,81.82
2019-04-30T19:38:32.390Z,82.44
2019-04-30T19:43:33.254Z,82.19
2019-04-30T19:48:35.814Z,82.37
2019-04-30T19:53:36.687Z,82.69
2019-04-30T19:58:52.340Z,83.00
2019-04-30T20:03:40.845Z,83.20
2019-04-30T20:08:42.428Z,82.20
2019-04-30T20:13:43.410Z,82.74
2019-04-30T20:18:44.283Z,83.17
2019-04-30T20:23:45.150Z,82.26
2019-04-30T20:28:46.134Z,82.36
2019-04-30T20:33:48.950Z,82.07
2019-04-30T20:39:01.279Z,82.96
2019-04-30T20:44:02.477Z,82.29
2019-04-30T20:49:05.345Z,81.93
2019-04-30T20:54:06.436Z,82.22
2019-04-30T20:59:10.459Z,81.96
2019-04-30T21:04:10.467Z,82.38
2019-04-30T21:09:11.373Z,83.98
2019-04-30T21:14:18.702Z,83.24
2019-04-30T21:19:19.980Z,83.08
2019-04-30T21:24:20.844Z,84.02
2019-04-30T21:29:21.715Z,84.70
2019-04-30T21:34:30.112Z,84.37
2019-04-30T21:39:30.968Z,83.95
2019-04-30T21:44:31.822Z,84.23
2019-04-30T21:49:32.884Z,82.74
2019-04-30T21:54:33.746Z,84.50
2019-04-30T21:59:34.602Z,84.12
2019-04-30T22:04:35.773Z,83.90
2019-04-30T22:09:37.491Z,83.75
2019-04-30T22:14:38.592Z,83.33
2019-04-30T22:19:39.579Z,83.75
2019-04-30T22:24:40.469Z,84.01
2019-04-30T22:29:42.271Z,84.15
2019-04-30T22:34:43.419Z,84.49
2019-04-30T22:39:46.198Z,81.53
